Time;durP1;ratioP1;P1;durP2;ratioP2;P2;SDS_P1;SDS_P2;PMS_P1;PMS_P2;Temp;Humidity;BMP_temperature;BMP_pressure;BME280_temperature;BME280_humidity;BME280_pressure;Samples;Min_cycle;Max_cycle;Signal;HPM_P1;HPM_P2
2022/03/19 00:00:27;;;;;;;24.45;18.35;;;4.70;92.70;;;;;;5058527;28;20032;-69
2022/03/19 00:02:53;;;;;;;28.35;20.92;;;4.70;92.70;;;;;;5045228;28;20087;-69
2022/03/19 00:05:19;;;;;;;33.40;22.77;;;4.70;92.40;;;;;;5048432;28;20112;-72
2022/03/19 00:07:45;;;;;;;34.97;21.70;;;4.80;92.00;;;;;;5049541;28;20115;-72
2022/03/19 00:10:11;;;;;;;31.83;22.25;;;4.90;91.90;;;;;;5055490;28;20123;-72
2022/03/19 00:12:41;;;;;;;26.75;19.85;;;4.90;91.80;;;;;;5051181;28;20124;-72
2022/03/19 00:15:08;;;;;;;24.00;17.67;;;4.90;92.40;;;;;;5049924;28;20037;-72
2022/03/19 00:17:34;;;;;;;28.95;19.30;;;4.80;92.70;;;;;;5055294;28;20263;-69
2022/03/19 00:20:00;;;;;;;28.02;18.00;;;4.80;93.20;;;;;;5050683;28;20028;-73
2022/03/19 00:22:26;;;;;;;24.48;18.15;;;4.70;93.20;;;;;;5055145;28;20080;-72
2022/03/19 00:24:52;;;;;;;26.52;19.48;;;4.60;93.30;;;;;;5057575;28;20238;-73
2022/03/19 00:27:18;;;;;;;22.95;17.73;;;4.50;93.20;;;;;;5060054;28;20480;-72
2022/03/19 00:29:43;;;;;;;25.15;17.60;;;4.50;93.50;;;;;;5056325;28;20126;-72
2022/03/19 00:32:09;;;;;;;24.83;17.77;;;4.40;94.10;;;;;;5052232;28;20135;-72
2022/03/19 00:34:34;;;;;;;27.23;19.15;;;4.40;93.90;;;;;;5054757;28;20158;-73
2022/03/19 00:37:00;;;;;;;33.03;23.50;;;4.40;93.80;;;;;;5057234;28;20049;-72
2022/03/19 00:39:26;;;;;;;31.80;21.55;;;4.40;93.70;;;;;;5056630;28;20715;-70
2022/03/19 00:41:54;;;;;;;35.80;23.05;;;4.40;93.70;;;;;;5052883;28;20544;-72
2022/03/19 00:44:21;;;;;;;34.55;24.15;;;4.50;93.50;;;;;;5059717;28;20086;-72
2022/03/19 00:46:47;;;;;;;34.95;24.17;;;4.50;93.20;;;;;;5054235;28;20040;-72
2022/03/19 00:49:14;;;;;;;28.08;19.63;;;4.50;93.30;;;;;;5057641;28;20048;-72
2022/03/19 00:51:40;;;;;;;23.58;17.13;;;4.40;93.20;;;;;;5057658;28;20060;-72
2022/03/19 00:54:10;;;;;;;21.35;15.63;;;4.30;93.40;;;;;;5056030;28;20053;-72
2022/03/19 00:56:36;;;;;;;22.00;16.83;;;4.20;93.40;;;;;;5058960;28;20043;-72
2022/03/19 00:59:02;;;;;;;24.30;16.98;;;4.10;93.80;;;;;;5057321;28;20045;-68
2022/03/19 01:01:28;;;;;;;23.23;17.33;;;4.10;93.80;;;;;;5058841;28;20106;-68
2022/03/19 01:03:54;;;;;;;26.27;18.02;;;4.00;93.90;;;;;;5055597;28;20128;-69
2022/03/19 01:06:20;;;;;;;23.00;16.30;;;3.90;94.20;;;;;;5061304;28;20063;-69
2022/03/19 01:08:46;;;;;;;21.23;15.68;;;3.90;93.80;;;;;;5052612;28;20041;-68
2022/03/19 01:11:12;;;;;;;24.10;15.73;;;3.80;94.00;;;;;;5056206;28;20040;-68
2022/03/19 01:13:38;;;;;;;20.88;15.38;;;3.90;93.70;;;;;;5055521;28;20060;-69
2022/03/19 01:16:03;;;;;;;22.08;16.25;;;3.80;93.60;;;;;;5057677;28;20461;-68
2022/03/19 01:18:30;;;;;;;20.35;14.02;;;3.60;93.30;;;;;;5058069;28;20522;-68
2022/03/19 01:20:56;;;;;;;20.50;14.73;;;3.50;93.80;;;;;;5058725;28;20082;-68
2022/03/19 01:23:22;;;;;;;22.02;14.18;;;3.40;94.10;;;;;;5054151;28;20091;-68
2022/03/19 01:25:48;;;;;;;22.40;15.40;;;3.40;94.10;;;;;;5054384;28;20052;-68
2022/03/19 01:28:13;;;;;;;19.42;14.52;;;3.30;94.10;;;;;;5054099;28;20052;-68
2022/03/19 01:30:39;;;;;;;21.10;15.27;;;3.40;93.80;;;;;;5053656;28;20108;-68
2022/03/19 01:33:05;;;;;;;23.50;15.77;;;3.40;93.60;;;;;;5054331;28;21007;-68
2022/03/19 01:35:31;;;;;;;21.58;14.98;;;3.30;93.80;;;;;;5053938;28;20040;-68
2022/03/19 01:37:57;;;;;;;20.05;15.23;;;3.30;93.90;;;;;;5057401;28;20687;-72
2022/03/19 01:40:23;;;;;;;23.30;16.08;;;3.30;94.00;;;;;;5057070;28;20033;-72
2022/03/19 01:42:50;;;;;;;26.92;16.40;;;3.40;94.00;;;;;;5053769;28;20178;-72
2022/03/19 01:45:19;;;;;;;24.55;15.52;;;3.40;93.80;;;;;;5049741;28;20489;-72
2022/03/19 01:47:47;;;;;;;16.67;12.63;;;3.40;93.80;;;;;;5054248;28;20110;-71
2022/03/19 01:50:13;;;;;;;17.63;12.90;;;3.40;93.50;;;;;;5051597;28;20181;-72
2022/03/19 01:52:40;;;;;;;17.67;13.30;;;3.20;93.50;;;;;;5055892;28;20040;-71
2022/03/19 01:55:06;;;;;;;22.25;15.38;;;3.00;93.80;;;;;;5055009;28;20032;-68
2022/03/19 01:57:37;;;;;;;22.30;15.90;;;3.00;93.90;;;;;;5055616;28;20040;-68
2022/03/19 02:00:08;;;;;;;23.38;17.48;;;2.90;94.00;;;;;;5049743;28;20031;-68
2022/03/19 02:02:34;;;;;;;30.48;19.83;;;2.90;94.00;;;;;;5051274;28;20586;-68
2022/03/19 02:05:03;;;;;;;21.67;14.70;;;2.90;94.30;;;;;;5045910;28;20120;-69
2022/03/19 02:07:29;;;;;;;14.73;11.68;;;3.00;94.20;;;;;;5050261;28;20098;-68
2022/03/19 02:09:58;;;;;;;16.05;11.73;;;2.90;93.80;;;;;;5049118;28;20158;-68
2022/03/19 02:12:24;;;;;;;15.70;11.30;;;2.80;93.60;;;;;;5059054;28;20432;-68
2022/03/19 02:14:50;;;;;;;14.45;11.45;;;2.60;93.50;;;;;;5048990;28;20044;-72
2022/03/19 02:17:16;;;;;;;15.48;11.48;;;2.50;93.80;;;;;;5054247;28;20049;-72
2022/03/19 02:20:02;;;;;;;15.48;10.98;;;2.40;94.30;;;;;;5053366;28;20090;-72
2022/03/19 02:22:28;;;;;;;14.93;11.18;;;2.40;94.40;;;;;;5054761;28;20617;-72
2022/03/19 02:27:40;;;;;;;18.13;11.75;;;2.30;94.20;;;;;;5052645;28;20144;-72
2022/03/19 02:30:10;;;;;;;19.05;13.13;;;2.20;94.40;;;;;;5055421;28;20035;-72
2022/03/19 02:32:36;;;;;;;17.85;12.30;;;2.20;94.40;;;;;;5054666;28;20082;-72
2022/03/19 02:35:02;;;;;;;18.83;12.68;;;2.20;94.30;;;;;;5050981;28;20201;-68
2022/03/19 02:37:46;;;;;;;17.92;12.50;;;2.20;94.50;;;;;;5050592;28;20069;-69
2022/03/19 02:40:14;;;;;;;17.88;12.60;;;2.20;94.60;;;;;;5053935;28;20086;-68
2022/03/19 02:42:40;;;;;;;17.98;12.88;;;2.20;94.60;;;;;;5054483;28;20055;-68
2022/03/19 02:45:07;;;;;;;18.48;12.77;;;2.20;95.00;;;;;;5051494;28;20025;-68
2022/03/19 02:47:33;;;;;;;18.30;13.27;;;2.20;95.30;;;;;;5055879;28;20045;-68
2022/03/19 02:49:59;;;;;;;20.48;13.43;;;2.20;95.10;;;;;;5056038;28;20076;-68
2022/03/19 02:52:25;;;;;;;21.25;13.10;;;2.40;95.10;;;;;;5054667;28;20041;-68
2022/03/19 02:54:51;;;;;;;16.45;12.38;;;2.40;95.10;;;;;;5054178;28;20094;-68
2022/03/19 02:57:16;;;;;;;16.13;11.65;;;2.40;94.20;;;;;;5054789;28;20037;-68
2022/03/19 02:59:42;;;;;;;14.73;10.57;;;2.20;93.80;;;;;;5052878;28;20040;-68
2022/03/19 03:02:10;;;;;;;16.42;11.27;;;2.00;93.60;;;;;;5048531;28;20040;-68
2022/03/19 03:04:36;;;;;;;17.88;12.70;;;1.70;94.20;;;;;;5052206;28;20044;-68
2022/03/19 03:07:04;;;;;;;18.98;11.75;;;1.70;94.90;;;;;;5046926;28;20041;-68
2022/03/19 03:09:31;;;;;;;16.63;11.98;;;1.60;95.30;;;;;;5052931;28;20039;-68
2022/03/19 03:11:58;;;;;;;20.38;12.63;;;1.70;95.90;;;;;;5048151;28;20614;-71
2022/03/19 03:14:24;;;;;;;18.15;13.20;;;1.70;95.90;;;;;;5051257;28;20101;-71
2022/03/19 03:16:53;;;;;;;15.30;11.05;;;1.80;95.80;;;;;;5051068;28;20441;-71
2022/03/19 03:19:20;;;;;;;15.75;11.77;;;1.90;95.40;;;;;;5058363;28;20452;-71
2022/03/19 03:21:46;;;;;;;16.20;11.25;;;1.90;95.40;;;;;;5049603;28;20032;-71
2022/03/19 03:24:13;;;;;;;15.50;11.50;;;2.00;95.50;;;;;;5050712;28;20090;-71
2022/03/19 03:26:39;;;;;;;19.17;11.85;;;2.00;95.40;;;;;;5058177;28;20043;-71
2022/03/19 03:29:06;;;;;;;19.20;12.35;;;2.00;95.50;;;;;;5056139;28;20028;-71
2022/03/19 03:31:32;;;;;;;16.80;12.35;;;1.90;95.70;;;;;;5052176;28;20115;-70
2022/03/19 03:33:58;;;;;;;16.08;11.60;;;2.00;95.50;;;;;;5054232;28;20045;-71
2022/03/19 03:36:24;;;;;;;17.08;12.40;;;1.90;95.70;;;;;;5056364;28;20848;-71
2022/03/19 03:38:50;;;;;;;19.40;12.00;;;1.80;95.20;;;;;;5052407;28;20480;-71
2022/03/19 03:41:16;;;;;;;17.38;11.93;;;1.80;95.80;;;;;;5049137;28;20049;-71
2022/03/19 03:43:42;;;;;;;15.35;11.90;;;1.80;95.80;;;;;;5053996;28;20037;-71
2022/03/19 03:46:07;;;;;;;18.48;11.95;;;1.80;96.00;;;;;;5053324;28;20049;-71
2022/03/19 03:48:36;;;;;;;14.80;10.88;;;1.90;96.10;;;;;;5051223;28;20558;-71
2022/03/19 03:51:03;;;;;;;13.75;11.10;;;1.80;95.70;;;;;;5049254;28;20123;-68
2022/03/19 03:53:29;;;;;;;18.13;11.32;;;1.80;95.20;;;;;;5049241;28;20033;-68
2022/03/19 03:55:56;;;;;;;15.50;10.20;;;1.80;94.90;;;;;;5052865;28;20549;-68
2022/03/19 03:58:23;;;;;;;18.08;11.35;;;1.80;95.20;;;;;;5050846;28;20043;-68
2022/03/19 04:00:51;;;;;;;16.92;10.73;;;1.70;95.10;;;;;;5051152;28;20090;-68
2022/03/19 04:03:17;;;;;;;16.50;10.85;;;1.70;95.40;;;;;;5050657;28;20179;-68
2022/03/19 04:05:43;;;;;;;14.77;11.20;;;1.70;95.40;;;;;;5051332;28;20041;-68
2022/03/19 04:23:16;;;;;;;15.10;11.07;;;1.60;95.40;;;;;;5061666;28;20075;-68
2022/03/19 04:25:42;;;;;;;18.92;12.30;;;1.60;95.70;;;;;;5046046;28;20057;-68
2022/03/19 04:28:11;;;;;;;15.82;12.15;;;1.70;96.00;;;;;;5055691;28;20744;-68
2022/03/19 04:30:38;;;;;;;17.42;11.60;;;1.70;96.00;;;;;;5051931;28;20103;-68
2022/03/19 04:33:06;;;;;;;20.92;11.98;;;1.80;95.90;;;;;;5055214;28;20132;-68
2022/03/19 04:38:21;;;;;;;17.50;12.35;;;1.80;96.00;;;;;;5052018;28;20196;-68
2022/03/19 04:40:48;;;;;;;19.17;12.65;;;1.90;95.70;;;;;;5053588;28;20540;-68
2022/03/19 04:43:14;;;;;;;19.42;12.88;;;1.90;95.70;;;;;;5053359;28;20052;-68
2022/03/19 04:45:42;;;;;;;20.20;14.20;;;1.90;95.80;;;;;;5054582;28;20389;-68
2022/03/19 04:48:08;;;;;;;16.77;12.82;;;2.00;95.70;;;;;;5048420;28;20043;-71
2022/03/19 04:50:38;;;;;;;21.42;13.38;;;2.00;95.50;;;;;;5056156;28;20041;-71
2022/03/19 04:53:06;;;;;;;16.17;11.90;;;2.00;95.50;;;;;;5052231;28;20032;-71
2022/03/19 04:55:33;;;;;;;15.13;11.77;;;2.00;95.10;;;;;;5054391;28;20048;-71
2022/03/19 04:57:58;;;;;;;17.73;12.23;;;1.90;95.30;;;;;;5049690;28;20037;-71
2022/03/19 05:00:25;;;;;;;18.38;12.52;;;1.80;95.20;;;;;;5054086;28;20025;-71
2022/03/19 05:02:50;;;;;;;17.70;12.45;;;1.60;95.60;;;;;;5052660;28;20047;-71
2022/03/19 05:05:16;;;;;;;15.43;12.38;;;1.50;95.70;;;;;;5054162;28;20059;-71
2022/03/19 05:07:42;;;;;;;19.00;13.10;;;1.50;96.00;;;;;;5054466;28;20040;-72
2022/03/19 05:12:54;;;;;;;19.13;12.02;;;1.50;96.00;;;;;;5056242;28;20056;-71
2022/03/19 05:15:20;;;;;;;17.92;13.95;;;1.50;95.90;;;;;;5058480;28;20025;-71
2022/03/19 05:17:46;;;;;;;17.75;12.30;;;1.60;96.00;;;;;;5054688;28;20047;-71
2022/03/19 05:20:13;;;;;;;17.88;12.18;;;1.70;95.70;;;;;;5060750;28;20068;-71
2022/03/19 05:22:38;;;;;;;15.38;11.65;;;1.60;95.50;;;;;;5057118;28;20060;-71
2022/03/19 05:25:05;;;;;;;18.98;12.95;;;1.60;95.70;;;;;;5048156;28;20048;-71
2022/03/19 05:27:31;;;;;;;16.25;11.55;;;1.50;96.00;;;;;;5038313;28;20693;-71
2022/03/19 05:29:57;;;;;;;14.23;10.55;;;1.50;95.80;;;;;;5040657;28;20030;-71
2022/03/19 05:32:22;;;;;;;16.98;12.50;;;1.40;96.20;;;;;;5035227;28;20037;-71
2022/03/19 05:34:49;;;;;;;19.45;12.40;;;1.50;96.10;;;;;;5037604;28;20055;-71
2022/03/19 05:37:15;;;;;;;16.40;11.60;;;1.40;95.90;;;;;;5036828;28;20403;-71
2022/03/19 05:39:42;;;;;;;16.20;12.20;;;1.40;95.80;;;;;;5034238;28;20103;-71
2022/03/19 05:42:08;;;;;;;16.02;11.50;;;1.40;95.90;;;;;;5036973;28;20045;-71
2022/03/19 05:44:34;;;;;;;17.13;11.73;;;1.30;96.10;;;;;;5036224;28;21754;-71
2022/03/19 05:47:00;;;;;;;17.02;12.25;;;1.30;96.10;;;;;;5035224;28;20036;-71
2022/03/19 05:49:27;;;;;;;17.08;12.38;;;1.40;96.00;;;;;;5038407;28;20029;-71
2022/03/19 05:51:54;;;;;;;19.80;14.07;;;1.40;96.00;;;;;;5039108;28;20040;-71
2022/03/19 05:54:19;;;;;;;38.10;13.77;;;1.40;96.10;;;;;;5036108;28;20038;-67
2022/03/19 05:56:45;;;;;;;18.35;13.02;;;1.40;95.90;;;;;;5035892;28;20037;-70
2022/03/19 05:59:11;;;;;;;22.85;12.68;;;1.40;96.30;;;;;;5037235;28;20069;-69
2022/03/19 06:01:37;;;;;;;65.20;15.30;;;1.60;96.30;;;;;;5039857;28;20036;-70
2022/03/19 06:04:03;;;;;;;18.70;13.75;;;1.70;96.00;;;;;;5038260;28;20136;-70
2022/03/19 06:06:29;;;;;;;23.83;15.15;;;1.80;96.00;;;;;;5038055;28;20167;-70
2022/03/19 06:08:56;;;;;;;24.73;17.10;;;2.00;96.20;;;;;;5036422;28;20610;-70
2022/03/19 06:11:22;;;;;;;26.00;17.55;;;2.00;96.10;;;;;;5045312;28;20433;-70
2022/03/19 06:13:47;;;;;;;24.98;17.33;;;2.10;96.40;;;;;;5034437;28;20132;-70
2022/03/19 06:16:13;;;;;;;22.52;14.68;;;2.20;96.10;;;;;;5036122;28;20036;-70
2022/03/19 06:18:39;;;;;;;21.40;14.20;;;2.20;95.70;;;;;;5035772;28;20713;-70
2022/03/19 06:21:05;;;;;;;23.58;14.23;;;2.10;95.70;;;;;;5038424;28;20133;-70
2022/03/19 06:23:31;;;;;;;19.95;14.02;;;2.00;96.00;;;;;;5037322;28;20049;-68
2022/03/19 06:25:57;;;;;;;21.55;14.35;;;2.00;96.40;;;;;;5042084;28;20099;-69
2022/03/19 06:28:23;;;;;;;22.00;15.05;;;2.00;96.50;;;;;;5031688;28;20051;-68
2022/03/19 06:30:49;;;;;;;25.33;17.10;;;2.20;96.80;;;;;;5035555;28;20048;-68
2022/03/19 06:33:15;;;;;;;24.63;17.38;;;2.20;96.70;;;;;;5036334;28;20080;-68
2022/03/19 06:38:28;;;;;;;21.33;14.98;;;2.50;96.40;;;;;;5038455;28;20052;-69
2022/03/19 06:40:54;;;;;;;22.33;15.88;;;2.50;96.70;;;;;;5033151;28;20901;-68
2022/03/19 06:43:20;;;;;;;25.95;18.48;;;2.50;96.60;;;;;;5035752;28;20048;-68
2022/03/19 06:45:46;;;;;;;40.83;20.98;;;2.60;96.80;;;;;;5034822;28;20056;-76
2022/03/19 06:48:12;;;;;;;37.92;25.05;;;2.70;96.70;;;;;;5039759;28;20029;-75
2022/03/19 06:50:38;;;;;;;39.53;28.02;;;2.70;96.60;;;;;;5034753;28;20124;-74
2022/03/19 06:53:04;;;;;;;38.28;25.15;;;2.80;96.60;;;;;;5038899;28;20091;-73
2022/03/19 06:55:30;;;;;;;34.13;23.20;;;2.90;96.50;;;;;;5035931;28;20045;-73
2022/03/19 06:57:56;;;;;;;33.40;21.95;;;3.00;97.10;;;;;;5037820;28;20049;-73
2022/03/19 07:00:22;;;;;;;35.25;23.52;;;3.10;97.00;;;;;;5036334;28;20044;-73
2022/03/19 07:02:50;;;;;;;30.30;21.48;;;3.30;96.60;;;;;;5036523;28;20041;-67
2022/03/19 07:05:20;;;;;;;34.88;20.48;;;3.50;96.40;;;;;;5035290;28;20041;-67
2022/03/19 07:07:46;;;;;;;29.77;20.90;;;3.70;95.80;;;;;;5036038;28;20039;-66
2022/03/19 07:10:13;;;;;;;31.48;21.75;;;4.00;95.50;;;;;;5031736;28;20169;-66
2022/03/19 07:12:45;;;;;;;32.83;22.05;;;4.10;95.10;;;;;;5033122;28;20021;-66
2022/03/19 07:15:15;;;;;;;38.10;22.33;;;4.30;94.90;;;;;;5036721;28;20671;-70
2022/03/19 07:17:43;;;;;;;39.08;24.00;;;4.30;94.70;;;;;;5028937;28;20048;-70
2022/03/19 07:20:09;;;;;;;33.03;23.65;;;4.50;94.60;;;;;;5034618;28;20056;-71
2022/03/19 07:22:52;;;;;;;39.13;25.75;;;4.60;94.10;;;;;;5034223;28;20130;-71
2022/03/19 07:25:22;;;;;;;40.20;25.38;;;4.70;93.80;;;;;;5045972;28;20131;-74
2022/03/19 07:27:49;;;;;;;42.28;29.05;;;4.80;93.80;;;;;;5051566;28;20044;-75
2022/03/19 07:30:15;;;;;;;46.58;31.38;;;4.80;93.60;;;;;;5049129;28;20043;-74
2022/03/19 07:32:41;;;;;;;49.80;34.75;;;4.90;93.80;;;;;;5053823;28;20041;-74
2022/03/19 07:35:07;;;;;;;54.60;33.45;;;4.90;93.70;;;;;;5052140;28;20040;-73
2022/03/19 07:37:34;;;;;;;43.35;25.70;;;5.00;93.50;;;;;;5057528;28;20383;-73
2022/03/19 07:40:01;;;;;;;35.08;22.08;;;5.10;93.00;;;;;;5060228;28;20550;-74
2022/03/19 07:42:26;;;;;;;27.05;19.98;;;5.20;92.00;;;;;;5054507;28;21672;-72
2022/03/19 07:44:52;;;;;;;28.58;20.25;;;5.20;91.90;;;;;;5050467;28;20549;-74
2022/03/19 07:47:19;;;;;;;32.45;20.88;;;5.20;91.60;;;;;;5058764;28;20041;-72
2022/03/19 07:49:44;;;;;;;47.58;28.60;;;5.30;91.00;;;;;;5060338;28;20021;-78
2022/03/19 07:52:11;;;;;;;31.85;21.25;;;5.30;91.50;;;;;;5061191;28;20390;-78
2022/03/19 07:54:37;;;;;;;70.15;42.90;;;5.40;91.00;;;;;;5056406;28;20025;-75
2022/03/19 07:57:07;;;;;;;33.35;22.40;;;5.50;90.20;;;;;;5066873;28;20046;-78
2022/03/19 07:59:33;;;;;;;102.43;59.88;;;5.50;89.70;;;;;;5056594;28;20035;-70
2022/03/19 08:01:59;;;;;;;63.80;39.80;;;5.60;89.00;;;;;;5055299;28;20029;-69
2022/03/19 08:04:25;;;;;;;45.47;29.33;;;5.60;88.80;;;;;;5045310;28;20493;-69
2022/03/19 08:06:53;;;;;;;28.10;19.70;;;5.60;87.60;;;;;;5051492;28;20106;-68
2022/03/19 08:09:19;;;;;;;98.03;59.00;;;5.70;86.50;;;;;;5050001;28;20063;-67
2022/03/19 08:11:47;;;;;;;88.68;54.78;;;5.80;86.60;;;;;;5047884;28;20528;-69
2022/03/19 08:14:14;;;;;;;90.60;53.10;;;5.80;86.40;;;;;;5050430;28;20112;-69
2022/03/19 08:16:41;;;;;;;86.80;47.22;;;5.80;86.50;;;;;;5037286;28;20282;-69
2022/03/19 08:19:07;;;;;;;36.45;24.55;;;5.80;86.00;;;;;;5057919;28;20044;-79
2022/03/19 08:21:33;;;;;;;26.27;18.48;;;5.80;86.80;;;;;;5050037;28;20509;-78
2022/03/19 08:23:59;;;;;;;24.15;16.55;;;5.90;85.80;;;;;;5051638;28;20124;-79
2022/03/19 08:26:25;;;;;;;25.75;18.95;;;5.90;85.90;;;;;;5032685;28;20033;-80
2022/03/19 08:28:50;;;;;;;25.48;19.00;;;6.00;85.60;;;;;;5033444;28;20040;-78
2022/03/19 08:31:16;;;;;;;25.77;17.17;;;6.20;85.30;;;;;;5035635;28;20446;-79
2022/03/19 08:33:42;;;;;;;23.85;16.77;;;6.30;85.30;;;;;;5033994;28;20048;-80
2022/03/19 08:36:07;;;;;;;21.33;15.10;;;6.50;85.20;;;;;;5034922;28;20501;-80
2022/03/19 08:41:17;;;;;;;22.20;16.02;;;6.70;84.30;;;;;;5033844;28;20071;-79
2022/03/19 08:43:44;;;;;;;22.88;16.08;;;7.00;83.30;;;;;;5039472;28;20769;-80
2022/03/19 08:46:10;;;;;;;27.23;17.27;;;7.30;81.30;;;;;;5041089;28;20045;-79
2022/03/19 08:48:36;;;;;;;23.88;17.40;;;7.50;81.30;;;;;;5035861;28;20132;-80
2022/03/19 08:53:47;;;;;;;22.13;16.30;;;7.80;78.20;;;;;;5036459;28;20052;-81
2022/03/19 08:56:13;;;;;;;27.30;16.63;;;7.80;77.60;;;;;;5036612;28;20040;-68
2022/03/19 08:58:38;;;;;;;21.88;15.50;;;7.90;76.20;;;;;;5038934;28;20037;-68
2022/03/19 09:01:04;;;;;;;23.80;16.77;;;7.90;75.70;;;;;;5035776;28;20536;-66
2022/03/19 09:03:30;;;;;;;24.80;16.73;;;7.80;75.10;;;;;;5036691;28;20072;-67
2022/03/19 09:05:56;;;;;;;22.35;17.23;;;7.70;77.40;;;;;;5033430;28;20699;-66
2022/03/19 09:08:22;;;;;;;21.67;15.73;;;7.60;76.70;;;;;;5034763;28;20040;-67
2022/03/19 09:10:48;;;;;;;19.35;15.00;;;7.70;77.20;;;;;;5038490;28;20046;-66
2022/03/19 09:13:14;;;;;;;23.52;15.13;;;7.80;76.50;;;;;;5034989;28;20639;-67
2022/03/19 09:15:40;;;;;;;23.20;15.65;;;7.90;75.10;;;;;;5038442;28;20037;-66
2022/03/19 09:18:06;;;;;;;24.10;16.65;;;7.90;74.40;;;;;;5037187;28;21229;-66
2022/03/19 09:20:32;;;;;;;18.33;14.55;;;7.90;74.30;;;;;;5051500;28;20642;-66
2022/03/19 09:22:58;;;;;;;20.67;15.43;;;8.00;73.10;;;;;;5039928;28;20171;-67
2022/03/19 09:25:24;;;;;;;28.70;15.38;;;8.00;73.10;;;;;;5047375;28;20093;-66
2022/03/19 09:27:50;;;;;;;37.35;24.00;;;8.00;72.40;;;;;;5057270;28;20033;-67
2022/03/19 09:30:15;;;;;;;23.67;16.73;;;8.10;71.20;;;;;;5057920;28;20485;-66
2022/03/19 09:32:41;;;;;;;20.95;15.48;;;8.10;70.40;;;;;;5058202;28;20032;-67
2022/03/19 09:35:08;;;;;;;20.73;15.13;;;8.20;69.30;;;;;;5039417;28;20456;-67
2022/03/19 09:37:34;;;;;;;19.55;14.90;;;8.30;69.30;;;;;;5054957;28;20516;-67
2022/03/19 09:40:00;;;;;;;20.23;15.00;;;8.30;70.10;;;;;;5047693;28;20124;-66
2022/03/19 09:42:31;;;;;;;20.77;13.82;;;8.40;68.60;;;;;;5053746;28;20701;-66
2022/03/19 09:44:57;;;;;;;20.50;14.97;;;8.40;67.70;;;;;;5055215;28;20464;-67
2022/03/19 09:47:25;;;;;;;19.60;14.63;;;8.40;67.50;;;;;;5054579;28;20270;-67
2022/03/19 09:49:51;;;;;;;20.05;14.85;;;8.40;67.70;;;;;;5057065;28;20106;-66
2022/03/19 09:52:20;;;;;;;17.52;13.57;;;8.50;67.80;;;;;;5054098;28;20041;-67
2022/03/19 09:54:46;;;;;;;20.25;14.18;;;8.70;67.30;;;;;;5052811;28;21024;-67
2022/03/19 09:57:12;;;;;;;15.90;11.60;;;8.80;65.00;;;;;;5054030;28;20055;-67
2022/03/19 09:59:38;;;;;;;14.77;10.82;;;9.00;61.60;;;;;;5053408;28;20485;-67
2022/03/19 10:02:10;;;;;;;15.70;11.45;;;9.20;58.30;;;;;;5043124;28;20114;-66
2022/03/19 10:04:41;;;;;;;17.45;11.85;;;9.30;56.90;;;;;;5056693;28;20124;-66
2022/03/19 10:09:52;;;;;;;16.05;11.13;;;9.30;56.40;;;;;;5053747;28;20052;-66
2022/03/19 10:12:25;;;;;;;14.63;11.15;;;9.40;56.60;;;;;;5030679;28;20478;-74
2022/03/19 10:14:56;;;;;;;17.58;10.10;;;9.50;55.90;;;;;;5055964;28;20043;-74
2022/03/19 10:17:36;;;;;;;16.77;11.17;;;9.40;55.40;;;;;;5051648;28;20191;-75
2022/03/19 10:20:12;;;;;;;14.25;10.43;;;9.40;55.50;;;;;;5057530;28;20459;-77
2022/03/19 10:22:46;;;;;;;15.13;10.50;;;9.60;56.30;;;;;;5045286;28;20743;-73
2022/03/19 10:25:13;;;;;;;16.05;11.90;;;9.90;54.00;;;;;;5042793;28;20052;-75
2022/03/19 10:27:43;;;;;;;12.40;9.98;;;10.10;53.30;;;;;;5027658;28;20033;-75
2022/03/19 10:30:19;;;;;;;12.68;9.55;;;10.30;53.70;;;;;;5014346;28;20603;-74
2022/03/19 10:32:53;;;;;;;13.57;9.00;;;10.60;51.40;;;;;;5024331;28;20056;-71
2022/03/19 10:35:28;;;;;;;44.92;23.25;;;10.70;50.00;;;;;;5033115;28;20025;-71
2022/03/19 10:37:54;;;;;;;14.00;8.75;;;11.00;49.10;;;;;;5022838;28;20037;-75
2022/03/19 10:40:21;;;;;;;12.80;11.25;;;11.10;47.50;;;;;;5035941;28;20426;-76
2022/03/19 10:42:50;;;;;;;14.02;9.80;;;11.10;48.50;;;;;;5036385;28;20056;-83
2022/03/19 10:45:21;;;;;;;17.13;12.35;;;11.00;47.60;;;;;;5033400;28;20093;-78
2022/03/19 10:47:48;;;;;;;23.03;18.37;;;11.00;48.70;;;;;;5029356;28;20939;-78
2022/03/19 10:50:21;;;;;;;16.73;11.55;;;11.10;48.80;;;;;;5037861;28;20267;-82
2022/03/19 10:52:49;;;;;;;14.38;11.45;;;11.20;47.70;;;;;;5035099;28;20029;-81
2022/03/19 10:55:16;;;;;;;14.73;11.05;;;11.30;49.40;;;;;;5035670;28;20040;-82
2022/03/19 10:57:42;;;;;;;16.45;12.20;;;11.50;47.40;;;;;;5034910;28;20045;-81
2022/03/19 11:00:09;;;;;;;17.60;12.70;;;11.50;47.60;;;;;;5033369;28;20072;-75
2022/03/19 11:02:40;;;;;;;12.80;10.75;;;11.50;47.40;;;;;;5032637;28;20033;-66
2022/03/19 11:05:08;;;;;;;12.88;9.95;;;11.60;47.00;;;;;;5027130;28;20044;-69
2022/03/19 11:07:36;;;;;;;13.65;9.82;;;11.50;46.50;;;;;;5022770;28;20060;-69
2022/03/19 11:10:04;;;;;;;15.68;10.60;;;11.50;46.50;;;;;;5028199;28;20739;-69
2022/03/19 11:12:33;;;;;;;19.80;12.38;;;11.60;47.00;;;;;;5033711;28;20033;-70
2022/03/19 11:15:03;;;;;;;17.52;12.55;;;11.80;46.80;;;;;;5026756;28;20033;-69
2022/03/19 11:17:33;;;;;;;15.98;12.07;;;12.00;46.30;;;;;;5030839;28;20033;-70
2022/03/19 11:20:07;;;;;;;18.23;11.75;;;12.10;45.70;;;;;;5026985;28;20057;-69
2022/03/19 11:22:54;;;;;;;15.73;11.98;;;12.10;45.60;;;;;;5043997;28;20468;-70
2022/03/19 11:25:30;;;;;;;16.10;11.68;;;12.10;46.50;;;;;;5028804;28;20042;-69
2022/03/19 11:27:59;;;;;;;12.95;10.45;;;12.20;45.70;;;;;;5027849;28;20034;-70
2022/03/19 11:30:31;;;;;;;14.80;11.10;;;12.30;45.30;;;;;;5032544;28;20025;-69
2022/03/19 11:33:04;;;;;;;19.15;13.20;;;12.40;46.00;;;;;;5036577;28;20048;-69
2022/03/19 11:35:32;;;;;;;17.45;11.07;;;12.60;44.70;;;;;;5027495;28;20037;-70
2022/03/19 11:38:04;;;;;;;16.80;10.85;;;12.60;44.40;;;;;;5005817;28;20071;-69
2022/03/19 11:40:32;;;;;;;;;;;12.50;44.20;;;;;;5028502;28;20067;-73
2022/03/19 11:43:00;;;;;;;17.05;12.45;;;12.40;44.30;;;;;;5030315;28;19927;-74
2022/03/19 11:45:27;;;;;;;13.15;10.30;;;12.40;44.30;;;;;;5029926;28;20083;-72
2022/03/19 11:47:53;;;;;;;14.18;9.93;;;12.50;46.10;;;;;;5032942;28;20054;-70
2022/03/19 11:50:23;;;;;;;17.30;10.57;;;12.70;52.90;;;;;;5030749;28;20056;-68
2022/03/19 11:53:09;;;;;;;13.40;10.73;;;13.20;52.40;;;;;;5021662;28;20044;-66
2022/03/19 11:55:39;;;;;;;12.63;10.18;;;13.60;43.40;;;;;;5021181;28;20722;-65
2022/03/19 11:58:07;;;;;;;12.88;10.27;;;13.30;43.10;;;;;;5031659;28;20041;-66
2022/03/19 12:00:36;;;;;;;16.88;10.65;;;13.20;42.30;;;;;;5025429;28;20038;-65
2022/03/19 12:03:13;;;;;;;18.55;9.75;;;13.00;42.50;;;;;;5028309;28;20756;-65
2022/03/19 12:05:51;;;;;;;17.95;11.38;;;13.10;42.30;;;;;;5028288;28;20517;-65
2022/03/19 12:08:24;;;;;;;15.05;9.98;;;13.20;42.50;;;;;;5027915;28;20061;-63
2022/03/19 12:10:57;;;;;;;16.42;10.05;;;13.30;41.70;;;;;;5031118;28;20124;-69
2022/03/19 12:13:29;;;;;;;14.65;9.27;;;13.10;41.50;;;;;;5030955;28;20059;-66
2022/03/19 12:15:59;;;;;;;16.70;9.70;;;12.90;41.40;;;;;;5030949;28;20029;-72
2022/03/19 12:18:26;;;;;;;15.23;9.15;;;12.70;40.60;;;;;;5029242;28;20044;-63
2022/03/19 12:20:53;;;;;;;16.73;10.82;;;12.50;42.50;;;;;;5021724;28;20120;-64
2022/03/19 12:23:19;;;;;;;18.08;9.32;;;12.50;42.00;;;;;;5024177;28;20571;-64
2022/03/19 12:26:12;;;;;;;14.88;10.32;;;12.50;42.00;;;;;;5029466;28;20056;-64
2022/03/19 12:28:39;;;;;;;12.10;9.68;;;12.40;41.40;;;;;;5034463;28;20068;-66
2022/03/19 12:31:11;;;;;;;19.50;10.38;;;12.30;42.10;;;;;;5030760;28;20040;-67
2022/03/19 12:33:38;;;;;;;17.35;11.70;;;12.30;41.40;;;;;;5031276;28;20047;-67
2022/03/19 12:36:21;;;;;;;23.25;15.30;;;12.30;42.10;;;;;;5031200;28;20091;-65
2022/03/19 12:38:50;;;;;;;15.80;9.98;;;12.10;42.10;;;;;;5034433;28;20037;-62
2022/03/19 12:41:24;;;;;;;13.40;10.43;;;12.00;42.00;;;;;;5011303;28;20098;-62
2022/03/19 12:43:51;;;;;;;14.40;10.77;;;11.90;41.90;;;;;;5021267;28;20075;-61
2022/03/19 12:46:34;;;;;;;15.50;12.43;;;11.90;42.50;;;;;;5026588;28;20094;-69
2022/03/19 12:49:18;;;;;;;12.50;9.38;;;12.20;42.60;;;;;;5032716;28;20037;-71
2022/03/19 12:51:46;;;;;;;12.50;9.30;;;12.40;41.10;;;;;;5029689;28;20048;-71
2022/03/19 12:54:27;;;;;;;14.60;10.63;;;12.60;40.90;;;;;;5034196;28;20505;-72
2022/03/19 12:56:57;;;;;;;13.70;10.88;;;12.70;41.40;;;;;;5036836;28;20133;-72
2022/03/19 12:59:28;;;;;;;12.75;10.40;;;13.00;40.90;;;;;;5031097;28;20033;-73
2022/03/19 13:01:55;;;;;;;12.35;9.85;;;13.20;40.00;;;;;;5033505;28;20198;-74
2022/03/19 13:04:26;;;;;;;12.32;10.25;;;13.20;39.60;;;;;;5031251;28;20048;-64
2022/03/19 13:06:53;;;;;;;15.93;10.73;;;13.30;38.30;;;;;;5028102;28;20120;-62
2022/03/19 13:09:36;;;;;;;14.30;10.02;;;13.30;38.30;;;;;;5031184;28;20032;-62
2022/03/19 13:12:04;;;;;;;14.07;9.93;;;13.30;37.40;;;;;;5033420;28;20033;-63